Time;durP1;ratioP1;P1;durP2;ratioP2;P2;SDS_P1;SDS_P2;PMS_P1;PMS_P2;Temp;Humidity;BMP_temperature;BMP_pressure;BME280_temperature;BME280_humidity;BME280_pressure;Samples;Min_cycle;Max_cycle;Signal;HPM_P1;HPM_P2
2023/05/28 00:02:18;;;;;;;16.10;4.95;;;;;;;;;;6260519;22;20163;-92
2023/05/28 00:05:24;;;;;;;13.77;4.68;;;;;;;;;;6261263;22;20228;-88
2023/05/28 00:08:30;;;;;;;10.02;3.88;;;;;;;;;;6262217;22;20171;-91
2023/05/28 00:11:35;;;;;;;13.07;4.82;;;;;;;;;;6262999;22;20171;-94
2023/05/28 00:14:40;;;;;;;15.88;4.68;;;;;;;;;;6262283;22;20162;-91
2023/05/28 00:17:45;;;;;;;13.27;4.70;;;;;;;;;;6261984;22;20209;-90
2023/05/28 00:20:51;;;;;;;10.70;4.40;;;;;;;;;;6262511;22;20167;-92
2023/05/28 00:24:29;;;;;;;15.07;4.68;;;;;;;;;;6263740;22;20215;-91
2023/05/28 00:27:39;;;;;;;12.70;4.47;;;;;;;;;;6263787;22;20234;-90
2023/05/28 00:30:45;;;;;;;13.60;4.75;;;;;;;;;;6265110;22;20166;-91
2023/05/28 00:33:50;;;;;;;10.75;4.80;;;;;;;;;;6264022;22;20177;-91
2023/05/28 00:36:56;;;;;;;9.82;4.30;;;;;;;;;;6263066;22;20634;-91
2023/05/28 00:40:01;;;;;;;13.90;5.10;;;;;;;;;;6264833;23;20735;-91
2023/05/28 00:43:08;;;;;;;14.13;4.80;;;;;;;;;;6263100;22;20167;-91
2023/05/28 00:46:17;;;;;;;14.65;4.53;;;;;;;;;;6264462;22;20192;-92
2023/05/28 00:49:23;;;;;;;13.95;5.13;;;;;;;;;;6262708;23;20221;-91
2023/05/28 00:52:28;;;;;;;13.88;5.05;;;;;;;;;;6262338;23;20162;-91
2023/05/28 00:55:33;;;;;;;13.35;4.78;;;;;;;;;;6263498;22;20166;-90
2023/05/28 00:58:40;;;;;;;12.50;4.60;;;;;;;;;;6261913;22;20214;-89
2023/05/28 01:01:46;;;;;;;15.00;4.53;;;;;;;;;;6262786;22;20194;-91
2023/05/28 01:04:52;;;;;;;10.95;4.53;;;;;;;;;;6259891;22;20245;-90
2023/05/28 01:07:58;;;;;;;11.43;4.68;;;;;;;;;;6260545;23;20289;-92
2023/05/28 01:11:03;;;;;;;12.38;4.63;;;;;;;;;;6262081;22;20151;-91
2023/05/28 01:14:11;;;;;;;12.90;4.47;;;;;;;;;;6260434;22;20614;-91
2023/05/28 01:17:16;;;;;;;13.95;4.25;;;;;;;;;;6261694;22;20198;-91
2023/05/28 01:20:22;;;;;;;12.60;4.60;;;;;;;;;;6262440;22;20233;-91
2023/05/28 01:23:29;;;;;;;11.75;4.30;;;;;;;;;;6262711;22;20213;-90
2023/05/28 01:26:38;;;;;;;13.57;4.88;;;;;;;;;;6263169;22;20169;-91
2023/05/28 01:29:43;;;;;;;12.25;4.60;;;;;;;;;;6261728;23;20209;-91
2023/05/28 01:32:48;;;;;;;11.80;4.70;;;;;;;;;;6262314;22;20150;-90
2023/05/28 01:35:55;;;;;;;17.63;5.07;;;;;;;;;;6263130;22;20254;-91
2023/05/28 01:39:02;;;;;;;11.38;4.22;;;;;;;;;;6262874;22;20289;-91
2023/05/28 01:42:10;;;;;;;14.10;4.97;;;;;;;;;;6263279;22;20166;-91
2023/05/28 01:45:16;;;;;;;17.58;5.00;;;;;;;;;;6263762;22;20166;-89
2023/05/28 01:48:22;;;;;;;13.45;4.80;;;;;;;;;;6263472;22;20213;-91
2023/05/28 01:51:29;;;;;;;14.77;4.43;;;;;;;;;;6263226;22;20171;-90
2023/05/28 01:54:35;;;;;;;15.57;4.72;;;;;;;;;;6262899;22;20469;-92
2023/05/28 01:57:42;;;;;;;15.75;5.22;;;;;;;;;;6263635;22;20174;-91
2023/05/28 02:00:52;;;;;;;12.75;4.43;;;;;;;;;;6261838;22;20557;-92
2023/05/28 02:03:57;;;;;;;15.15;4.70;;;;;;;;;;6262359;22;20159;-92
2023/05/28 02:07:03;;;;;;;16.75;4.80;;;;;;;;;;6261765;22;20590;-89
2023/05/28 02:10:11;;;;;;;14.10;4.93;;;;;;;;;;6261559;22;20736;-90
2023/05/28 02:13:18;;;;;;;15.32;4.68;;;;;;;;;;6261610;22;20182;-91
2023/05/28 02:16:24;;;;;;;13.70;4.68;;;;;;;;;;6263832;22;20165;-92
2023/05/28 02:19:32;;;;;;;14.60;4.38;;;;;;;;;;6262774;22;20166;-90
2023/05/28 02:22:38;;;;;;;11.23;4.40;;;;;;;;;;6262672;22;20166;-92
2023/05/28 02:25:43;;;;;;;12.60;4.93;;;;;;;;;;6262575;22;20170;-92
2023/05/28 02:28:50;;;;;;;12.82;4.60;;;;;;;;;;6260219;22;20215;-91
2023/05/28 02:31:57;;;;;;;11.27;4.53;;;;;;;;;;6261161;22;20155;-91
2023/05/28 02:35:02;;;;;;;9.98;4.45;;;;;;;;;;6264828;22;20719;-91
2023/05/28 02:38:09;;;;;;;14.07;5.00;;;;;;;;;;6273499;22;20209;-91
2023/05/28 02:41:14;;;;;;;11.13;4.93;;;;;;;;;;6273228;22;20304;-90
2023/05/28 02:44:27;;;;;;;13.35;4.53;;;;;;;;;;6271856;22;20178;-90
2023/05/28 02:47:36;;;;;;;11.60;4.60;;;;;;;;;;6272178;22;20165;-91
2023/05/28 02:50:41;;;;;;;13.02;4.90;;;;;;;;;;6274183;22;20154;-90
2023/05/28 02:54:06;;;;;;;12.65;4.55;;;;;;;;;;6261942;22;20182;-94
2023/05/28 02:57:13;;;;;;;16.33;4.72;;;;;;;;;;6272620;22;20189;-91
2023/05/28 03:00:21;;;;;;;9.93;4.35;;;;;;;;;;6273363;22;20157;-90
2023/05/28 03:03:26;;;;;;;13.55;4.40;;;;;;;;;;6272204;22;20169;-91
2023/05/28 03:06:33;;;;;;;13.85;4.93;;;;;;;;;;6273286;22;20245;-91
2023/05/28 03:09:39;;;;;;;14.38;4.65;;;;;;;;;;6274426;22;20214;-92
2023/05/28 03:12:44;;;;;;;13.10;4.15;;;;;;;;;;6273850;22;20200;-93
2023/05/28 03:15:51;;;;;;;11.20;4.75;;;;;;;;;;6273924;22;20169;-92
2023/05/28 03:22:19;;;;;;;13.90;4.75;;;;;;;;;;6274717;22;20285;-91
2023/05/28 03:25:25;;;;;;;17.27;4.85;;;;;;;;;;6274830;22;20166;-93
2023/05/28 03:28:34;;;;;;;12.43;4.93;;;;;;;;;;6274759;22;20154;-92
2023/05/28 03:32:00;;;;;;;12.07;4.35;;;;;;;;;;6294476;22;20176;-91
2023/05/28 03:35:06;;;;;;;12.48;4.15;;;;;;;;;;6275073;22;20193;-91
2023/05/28 03:38:12;;;;;;;16.05;5.20;;;;;;;;;;6276210;22;20197;-90
2023/05/28 03:41:17;;;;;;;10.40;4.50;;;;;;;;;;6274913;22;20165;-90
2023/05/28 03:44:24;;;;;;;11.95;4.30;;;;;;;;;;6275438;22;20249;-91
2023/05/28 03:47:32;;;;;;;17.92;4.82;;;;;;;;;;6275221;22;20213;-92
2023/05/28 03:50:38;;;;;;;19.30;5.15;;;;;;;;;;6276524;22;20150;-90
2023/05/28 03:53:43;;;;;;;12.98;4.82;;;;;;;;;;6277480;22;20495;-90
2023/05/28 03:56:48;;;;;;;11.45;4.28;;;;;;;;;;6274581;22;20165;-90
2023/05/28 03:59:55;;;;;;;14.38;4.78;;;;;;;;;;6278652;22;20165;-91
2023/05/28 04:03:03;;;;;;;10.80;4.25;;;;;;;;;;6276935;22;20234;-90
2023/05/28 04:06:08;;;;;;;13.25;4.18;;;;;;;;;;6277217;22;20243;-92
2023/05/28 04:09:14;;;;;;;13.35;4.57;;;;;;;;;;6259528;22;20165;-92
2023/05/28 04:12:19;;;;;;;13.00;4.93;;;;;;;;;;6276213;22;20181;-91
2023/05/28 04:15:24;;;;;;;18.42;5.18;;;;;;;;;;6275243;22;20189;-91
2023/05/28 04:18:37;;;;;;;11.85;4.25;;;;;;;;;;6276541;22;20197;-91
2023/05/28 04:21:42;;;;;;;11.20;4.30;;;;;;;;;;6275969;22;20198;-92
2023/05/28 04:24:50;;;;;;;12.60;4.40;;;;;;;;;;6273827;22;20181;-91
2023/05/28 04:27:56;;;;;;;12.60;4.05;;;;;;;;;;6271745;22;20165;-91
2023/05/28 04:31:02;;;;;;;12.23;4.43;;;;;;;;;;6272219;22;20185;-90
2023/05/28 04:34:10;;;;;;;18.45;4.68;;;;;;;;;;6274284;22;20181;-92
2023/05/28 04:37:16;;;;;;;17.67;5.07;;;;;;;;;;6272990;22;20185;-89
2023/05/28 04:40:21;;;;;;;12.27;5.00;;;;;;;;;;6271754;22;20165;-92
2023/05/28 04:43:29;;;;;;;14.25;5.22;;;;;;;;;;6272288;22;20222;-92
2023/05/28 04:46:36;;;;;;;13.65;5.07;;;;;;;;;;6271140;22;20170;-92
2023/05/28 04:49:43;;;;;;;14.05;5.22;;;;;;;;;;6274928;22;20154;-93
2023/05/28 04:52:48;;;;;;;12.18;4.93;;;;;;;;;;6274347;22;20168;-91
2023/05/28 04:55:57;;;;;;;11.75;4.68;;;;;;;;;;6275077;22;20165;-93
2023/05/28 04:59:04;;;;;;;20.52;5.47;;;;;;;;;;6272813;22;20562;-90
2023/05/28 05:02:10;;;;;;;13.40;5.07;;;;;;;;;;6274726;22;20177;-93
2023/05/28 05:05:17;;;;;;;14.60;5.32;;;;;;;;;;6275720;22;20145;-92
2023/05/28 05:08:22;;;;;;;17.00;4.85;;;;;;;;;;6273319;22;20219;-91
2023/05/28 05:11:27;;;;;;;14.98;5.07;;;;;;;;;;6275413;22;20170;-93
2023/05/28 05:14:32;;;;;;;15.88;5.63;;;;;;;;;;6274091;22;20169;-91
2023/05/28 05:17:41;;;;;;;12.25;4.88;;;;;;;;;;6274567;22;20173;-91
2023/05/28 05:20:48;;;;;;;14.85;4.88;;;;;;;;;;6274824;22;20185;-93
2023/05/28 05:23:54;;;;;;;15.60;5.28;;;;;;;;;;6273887;22;20209;-92
2023/05/28 05:27:28;;;;;;;15.85;5.20;;;;;;;;;;6274524;22;20145;-92
2023/05/28 05:30:33;;;;;;;14.65;5.47;;;;;;;;;;6274722;22;20208;-92
2023/05/28 05:33:38;;;;;;;15.00;4.82;;;;;;;;;;6274499;22;20169;-93
2023/05/28 05:37:05;;;;;;;13.45;4.93;;;;;;;;;;6292177;22;20255;-90
2023/05/28 05:40:29;;;;;;;14.07;4.90;;;;;;;;;;6291751;22;20169;-91
2023/05/28 05:44:03;;;;;;;9.70;4.25;;;;;;;;;;6291387;22;20189;-91
2023/05/28 05:47:09;;;;;;;17.58;4.80;;;;;;;;;;6274563;22;20169;-90
2023/05/28 05:50:14;;;;;;;12.68;4.65;;;;;;;;;;6275498;22;20172;-90
2023/05/28 05:53:23;;;;;;;17.85;4.75;;;;;;;;;;6273071;22;20166;-90
2023/05/28 05:56:28;;;;;;;13.98;4.97;;;;;;;;;;6275507;22;20165;-89
2023/05/28 05:59:33;;;;;;;11.98;4.63;;;;;;;;;;6275315;22;20201;-91
2023/05/28 06:02:38;;;;;;;13.45;4.85;;;;;;;;;;6275424;22;20186;-93
2023/05/28 06:05:49;;;;;;;15.80;4.53;;;;;;;;;;6272926;22;20227;-90
2023/05/28 06:09:04;;;;;;;15.63;4.88;;;;;;;;;;6273943;22;20241;-90
2023/05/28 06:12:15;;;;;;;15.15;5.05;;;;;;;;;;6274672;22;20216;-93
2023/05/28 06:15:21;;;;;;;19.52;4.38;;;;;;;;;;6273347;22;20166;-92
2023/05/28 06:18:26;;;;;;;15.68;4.80;;;;;;;;;;6272608;22;20197;-91
2023/05/28 06:21:36;;;;;;;9.55;4.15;;;;;;;;;;6274904;22;20165;-93
2023/05/28 06:24:49;;;;;;;11.35;3.95;;;;;;;;;;6275411;22;20161;-93
2023/05/28 06:27:56;;;;;;;14.90;4.35;;;;;;;;;;6275386;22;20180;-90
2023/05/28 06:31:02;;;;;;;14.13;4.03;;;;;;;;;;6275065;22;20170;-88
2023/05/28 06:34:08;;;;;;;15.02;4.55;;;;;;;;;;6273409;22;20244;-90
2023/05/28 06:37:13;;;;;;;12.77;4.20;;;;;;;;;;6276025;22;20189;-91
2023/05/28 06:40:20;;;;;;;15.40;4.00;;;;;;;;;;6274883;22;20157;-91
2023/05/28 06:43:25;;;;;;;13.32;4.18;;;;;;;;;;6275822;22;20177;-91
2023/05/28 06:46:47;;;;;;;15.93;4.43;;;;;;;;;;6275799;22;20239;-91
2023/05/28 06:49:52;;;;;;;12.00;4.03;;;;;;;;;;6275737;22;20189;-92
2023/05/28 06:52:58;;;;;;;11.77;3.90;;;;;;;;;;6275144;22;20166;-92
2023/05/28 06:56:06;;;;;;;10.93;3.95;;;;;;;;;;6275592;22;20177;-91
2023/05/28 06:59:17;;;;;;;11.50;4.07;;;;;;;;;;6293749;22;20193;-91
2023/05/28 07:02:42;;;;;;;11.30;3.67;;;;;;;;;;6274423;22;20166;-93
2023/05/28 07:06:13;;;;;;;10.52;3.72;;;;;;;;;;6274370;22;20165;-90
2023/05/28 07:09:19;;;;;;;12.20;5.55;;;;;;;;;;6273122;22;20198;-92
2023/05/28 07:12:31;;;;;;;11.77;3.67;;;;;;;;;;6273692;22;20169;-92
2023/05/28 07:15:38;;;;;;;10.27;4.35;;;;;;;;;;6274720;22;20169;-91
2023/05/28 07:18:43;;;;;;;11.52;3.55;;;;;;;;;;6276781;22;20196;-93
2023/05/28 07:21:49;;;;;;;12.27;3.20;;;;;;;;;;6273780;22;20185;-92
2023/05/28 07:24:55;;;;;;;9.60;3.35;;;;;;;;;;6274233;22;20170;-93
2023/05/28 07:28:38;;;;;;;8.93;2.80;;;;;;;;;;6274923;22;20170;-91
2023/05/28 07:31:49;;;;;;;6.90;2.90;;;;;;;;;;6276413;22;20154;-91
2023/05/28 07:34:56;;;;;;;9.05;3.38;;;;;;;;;;6277361;22;20162;-93
2023/05/28 07:38:07;;;;;;;7.85;3.40;;;;;;;;;;6279032;22;20217;-91
2023/05/28 07:41:12;;;;;;;7.75;2.78;;;;;;;;;;6279893;22;20170;-92
2023/05/28 07:44:27;;;;;;;10.13;3.10;;;;;;;;;;6280655;22;20170;-93
2023/05/28 07:47:38;;;;;;;7.55;3.22;;;;;;;;;;6279666;22;20213;-93
2023/05/28 07:50:58;;;;;;;8.73;3.30;;;;;;;;;;6298288;22;20145;-93
2023/05/28 07:54:33;;;;;;;8.13;3.13;;;;;;;;;;6296276;22;20617;-93
2023/05/28 07:57:38;;;;;;;8.95;2.83;;;;;;;;;;6278972;22;20170;-91
2023/05/28 08:00:46;;;;;;;9.18;3.17;;;;;;;;;;6278836;22;20161;-92
2023/05/28 08:03:54;;;;;;;10.57;2.88;;;;;;;;;;6278380;22;20177;-92
2023/05/28 08:07:28;;;;;;;9.45;2.72;;;;;;;;;;6279095;22;20170;-93
2023/05/28 08:10:39;;;;;;;7.75;2.90;;;;;;;;;;6280050;22;20149;-92
2023/05/28 08:13:45;;;;;;;7.75;2.90;;;;;;;;;;6277732;22;20227;-93
2023/05/28 08:16:52;;;;;;;7.70;3.40;;;;;;;;;;6278470;22;20213;-92
2023/05/28 08:20:17;;;;;;;7.65;2.97;;;;;;;;;;6279080;22;20188;-92
2023/05/28 08:23:46;;;;;;;5.90;2.67;;;;;;;;;;6279194;22;20248;-92
2023/05/28 08:27:21;;;;;;;5.85;2.97;;;;;;;;;;6277525;22;20165;-91
2023/05/28 08:30:26;;;;;;;6.43;2.67;;;;;;;;;;6279084;22;20170;-94
2023/05/28 08:33:44;;;;;;;7.78;2.50;;;;;;;;;;6278417;22;20170;-90
2023/05/28 08:36:51;;;;;;;8.75;2.97;;;;;;;;;;6279689;22;20197;-94
2023/05/28 08:40:04;;;;;;;10.23;3.08;;;;;;;;;;6278910;22;20185;-94
2023/05/28 08:43:10;;;;;;;11.40;3.15;;;;;;;;;;6278567;22;20161;-93
2023/05/28 08:46:16;;;;;;;6.65;2.50;;;;;;;;;;6279886;22;20165;-93
2023/05/28 08:49:44;;;;;;;8.38;2.65;;;;;;;;;;6296154;22;20157;-92
2023/05/28 08:52:51;;;;;;;7.65;3.13;;;;;;;;;;6275042;22;20589;-90
2023/05/28 08:55:57;;;;;;;6.70;2.97;;;;;;;;;;6275126;22;20188;-91
2023/05/28 08:59:04;;;;;;;9.30;3.00;;;;;;;;;;6274623;22;20245;-92
2023/05/28 09:02:11;;;;;;;9.10;2.90;;;;;;;;;;6276745;22;20180;-93
2023/05/28 09:05:19;;;;;;;6.35;2.95;;;;;;;;;;6277047;22;20154;-92
2023/05/28 09:08:27;;;;;;;8.43;3.25;;;;;;;;;;6278285;22;20173;-93
2023/05/28 09:11:37;;;;;;;7.82;2.90;;;;;;;;;;6277232;22;20216;-93
2023/05/28 09:14:58;;;;;;;6.93;2.80;;;;;;;;;;6277636;22;20181;-94
2023/05/28 09:18:15;;;;;;;10.23;2.90;;;;;;;;;;6277977;22;20169;-94
2023/05/28 09:21:25;;;;;;;5.93;2.95;;;;;;;;;;6274907;22;20240;-95
2023/05/28 09:24:45;;;;;;;5.00;2.95;;;;;;;;;;6278256;22;20181;-93
2023/05/28 09:32:23;;;;;;;9.65;3.17;;;;;;;;;;6293399;22;20199;-94
2023/05/28 09:35:29;;;;;;;6.32;2.83;;;;;;;;;;6277921;22;20172;-94
2023/05/28 14:08:28;;;;;;;11.05;5.05;;;;;;;;;;6293912;22;20166;-92
2023/05/28 14:11:33;;;;;;;7.50;4.78;;;;;;;;;;6275871;22;20221;-90
2023/05/28 14:14:38;;;;;;;8.07;5.38;;;;;;;;;;6275253;22;20166;-91
2023/05/28 14:21:08;;;;;;;10.13;5.60;;;;;;;;;;6276310;22;20225;-93
2023/05/28 14:24:23;;;;;;;9.40;5.00;;;;;;;;;;6279925;22;20158;-93
2023/05/28 14:27:55;;;;;;;7.43;4.50;;;;;;;;;;6277444;22;20161;-91
2023/05/28 14:31:00;;;;;;;7.80;3.92;;;;;;;;;;6276860;22;20160;-93
2023/05/28 14:34:06;;;;;;;7.85;4.97;;;;;;;;;;6259963;22;20239;-94
2023/05/28 14:37:12;;;;;;;10.15;5.35;;;;;;;;;;6278662;22;20165;-92
2023/05/28 14:40:20;;;;;;;8.18;4.43;;;;;;;;;;6276032;22;20265;-92
2023/05/28 14:43:25;;;;;;;7.43;4.60;;;;;;;;;;6278102;22;20214;-92
2023/05/28 14:46:30;;;;;;;13.27;4.45;;;;;;;;;;6276575;22;20490;-93
2023/05/28 14:49:35;;;;;;;7.70;4.00;;;;;;;;;;6277903;22;20218;-92
2023/05/28 14:52:41;;;;;;;9.25;4.38;;;;;;;;;;6276687;22;20210;-92
2023/05/28 18:18:40;;;;;;;11.70;5.95;;;;;;;;;;6314868;22;20218;-92
2023/05/28 18:21:45;;;;;;;15.40;6.60;;;;;;;;;;6328764;22;20198;-91
2023/05/28 18:24:51;;;;;;;11.40;5.63;;;;;;;;;;6309078;22;20164;-93
2023/05/28 18:32:18;;;;;;;12.68;5.82;;;;;;;;;;6327366;22;20153;-93
2023/05/28 18:35:29;;;;;;;13.05;5.00;;;;;;;;;;6309849;22;20311;-92
2023/05/28 18:38:36;;;;;;;10.75;5.15;;;;;;;;;;6310359;22;20213;-93
2023/05/28 18:41:42;;;;;;;8.60;4.75;;;;;;;;;;6309007;22;20164;-94
2023/05/28 18:44:48;;;;;;;9.68;4.78;;;;;;;;;;6307619;22;20153;-94
2023/05/28 18:47:54;;;;;;;10.27;5.15;;;;;;;;;;6310332;22;20158;-93
2023/05/28 18:51:01;;;;;;;15.07;6.85;;;;;;;;;;6308525;22;20172;-94
2023/05/28 18:54:08;;;;;;;9.82;5.45;;;;;;;;;;6290249;22;20161;-92
2023/05/28 18:57:16;;;;;;;12.23;5.53;;;;;;;;;;6306798;22;20157;-94
2023/05/28 19:00:22;;;;;;;10.95;5.85;;;;;;;;;;6305197;22;20177;-92
2023/05/28 19:03:37;;;;;;;12.98;6.10;;;;;;;;;;6308429;22;20198;-94
2023/05/28 19:06:54;;;;;;;11.18;5.18;;;;;;;;;;6307298;22;20192;-92
2023/05/28 19:10:03;;;;;;;10.90;4.68;;;;;;;;;;6307114;22;20172;-93
2023/05/28 19:13:09;;;;;;;8.50;4.60;;;;;;;;;;6306411;22;20293;-93
2023/05/28 19:16:14;;;;;;;9.88;5.25;;;;;;;;;;6308391;22;20188;-94
2023/05/28 19:19:20;;;;;;;9.77;5.13;;;;;;;;;;6306497;22;20243;-94
2023/05/28 19:22:28;;;;;;;11.73;6.00;;;;;;;;;;6305258;22;20165;-93
2023/05/28 19:25:36;;;;;;;11.65;5.47;;;;;;;;;;6306417;22;20180;-94
2023/05/28 19:28:46;;;;;;;13.27;6.15;;;;;;;;;;6305288;22;20199;-94
2023/05/28 19:31:52;;;;;;;13.02;5.28;;;;;;;;;;6324300;22;20304;-94
2023/05/28 19:34:57;;;;;;;13.48;5.68;;;;;;;;;;6326369;22;20168;-93
2023/05/28 19:38:04;;;;;;;13.80;5.75;;;;;;;;;;6309586;22;20161;-93
2023/05/28 19:41:10;;;;;;;12.88;6.00;;;;;;;;;;6308271;22;20176;-93
2023/05/28 19:44:15;;;;;;;11.50;5.40;;;;;;;;;;6304151;22;20172;-92
2023/05/28 19:47:21;;;;;;;23.33;10.35;;;;;;;;;;6304228;22;20180;-92
2023/05/28 19:50:28;;;;;;;25.40;12.70;;;;;;;;;;6304043;22;20164;-92
2023/05/28 19:53:35;;;;;;;14.82;5.95;;;;;;;;;;6304783;22;20184;-93
2023/05/28 19:56:42;;;;;;;10.70;4.90;;;;;;;;;;6309925;22;20209;-93
2023/05/28 19:59:48;;;;;;;11.98;5.28;;;;;;;;;;6306296;22;20192;-95
2023/05/28 20:02:54;;;;;;;13.00;5.70;;;;;;;;;;6307130;22;20144;-92
2023/05/28 20:05:59;;;;;;;12.38;5.47;;;;;;;;;;6307086;22;20165;-93
2023/05/28 20:09:08;;;;;;;14.00;5.85;;;;;;;;;;6309110;22;20161;-93
2023/05/28 20:15:37;;;;;;;10.45;5.38;;;;;;;;;;6307620;22;20208;-93
2023/05/28 20:18:42;;;;;;;12.10;4.97;;;;;;;;;;6309670;22;20176;-92
2023/05/28 20:21:49;;;;;;;15.90;5.88;;;;;;;;;;6306545;22;20173;-91
2023/05/28 20:24:57;;;;;;;13.32;6.10;;;;;;;;;;6307922;22;20168;-91
2023/05/28 20:28:25;;;;;;;11.48;5.65;;;;;;;;;;6324550;22;20164;-92
2023/05/28 20:31:30;;;;;;;11.55;5.95;;;;;;;;;;6307387;22;20149;-91
2023/05/28 20:34:37;;;;;;;10.25;5.30;;;;;;;;;;6306978;22;20671;-91
2023/05/28 20:37:44;;;;;;;13.85;5.47;;;;;;;;;;6307613;22;20161;-92
2023/05/28 20:40:59;;;;;;;14.20;6.22;;;;;;;;;;6309935;22;20203;-92
2023/05/28 20:44:05;;;;;;;14.07;6.07;;;;;;;;;;6307051;22;20312;-93
2023/05/28 20:47:19;;;;;;;16.83;5.95;;;;;;;;;;6325330;22;20173;-92
2023/05/28 20:50:24;;;;;;;10.68;5.32;;;;;;;;;;6306534;22;20156;-93
2023/05/28 20:53:30;;;;;;;10.98;5.00;;;;;;;;;;6304952;22;20588;-91
2023/05/28 20:56:39;;;;;;;12.38;4.75;;;;;;;;;;6306317;22;20216;-92
2023/05/28 20:59:47;;;;;;;12.88;5.65;;;;;;;;;;6302636;22;20671;-94
2023/05/28 21:02:55;;;;;;;15.13;5.57;;;;;;;;;;6304988;22;20202;-91
2023/05/28 21:06:00;;;;;;;11.07;5.60;;;;;;;;;;6304912;22;20149;-91
2023/05/28 21:09:06;;;;;;;12.18;5.03;;;;;;;;;;6325394;22;20141;-92
2023/05/28 21:12:13;;;;;;;14.20;5.30;;;;;;;;;;6309544;22;20168;-91
2023/05/28 21:15:18;;;;;;;11.00;5.60;;;;;;;;;;6306620;22;20165;-93
2023/05/28 21:18:23;;;;;;;11.45;5.35;;;;;;;;;;6306443;22;20195;-93
2023/05/28 21:21:30;;;;;;;10.60;5.57;;;;;;;;;;6307321;22;20221;-92
2023/05/28 21:24:37;;;;;;;15.43;5.72;;;;;;;;;;6306969;22;20176;-92
2023/05/28 21:28:22;;;;;;;13.57;5.80;;;;;;;;;;6306581;22;20232;-93
2023/05/28 21:31:29;;;;;;;14.95;5.90;;;;;;;;;;6307710;22;20177;-92
2023/05/28 21:34:35;;;;;;;18.80;5.47;;;;;;;;;;6307125;22;20173;-91
2023/05/28 21:37:43;;;;;;;12.05;5.35;;;;;;;;;;6307115;22;20157;-93
2023/05/28 21:40:48;;;;;;;11.68;4.95;;;;;;;;;;6307835;22;20208;-93
2023/05/28 21:43:54;;;;;;;11.52;5.70;;;;;;;;;;6305667;22;20284;-93
2023/05/28 21:47:01;;;;;;;10.80;5.13;;;;;;;;;;6304736;22;20149;-93
2023/05/28 21:50:07;;;;;;;12.52;5.00;;;;;;;;;;6304952;22;20165;-94
2023/05/28 21:53:12;;;;;;;11.77;5.40;;;;;;;;;;6304768;22;20180;-92
2023/05/28 21:56:18;;;;;;;12.55;4.80;;;;;;;;;;6304377;22;20161;-93
2023/05/28 21:59:23;;;;;;;11.77;4.95;;;;;;;;;;6305083;22;20169;-93
2023/05/28 22:03:08;;;;;;;15.77;5.13;;;;;;;;;;6303447;22;20173;-94
2023/05/28 22:06:23;;;;;;;11.20;4.97;;;;;;;;;;6305809;22;20205;-93
2023/05/28 22:09:38;;;;;;;11.10;4.95;;;;;;;;;;6306031;22;20169;-91
2023/05/28 22:12:44;;;;;;;10.80;4.70;;;;;;;;;;6305266;22;20227;-92
2023/05/28 22:15:49;;;;;;;11.73;4.70;;;;;;;;;;6305635;22;20145;-91
2023/05/28 22:18:57;;;;;;;13.93;5.20;;;;;;;;;;6304792;22;20189;-93
2023/05/28 22:22:05;;;;;;;11.50;5.25;;;;;;;;;;6306313;22;20176;-93
2023/05/28 22:25:12;;;;;;;12.68;5.75;;;;;;;;;;6304667;22;20165;-93
2023/05/28 22:28:19;;;;;;;13.77;6.50;;;;;;;;;;6303197;22;20225;-93
2023/05/28 22:31:26;;;;;;;10.55;4.88;;;;;;;;;;6323727;22;20173;-92
2023/05/28 22:34:32;;;;;;;10.93;5.32;;;;;;;;;;6304288;22;20166;-93
2023/05/28 22:37:38;;;;;;;9.88;5.05;;;;;;;;;;6323268;22;20145;-93
2023/05/28 22:40:52;;;;;;;13.43;5.40;;;;;;;;;;6302491;22;20202;-92
